createdAt,value
2019-02-19T00:00:11.260Z,2.45
2019-02-19T00:02:40.832Z,2.39
2019-02-19T00:05:10.438Z,2.68
2019-02-19T00:07:39.867Z,2.94
2019-02-19T00:10:09.319Z,3.03
2019-02-19T00:12:38.726Z,3.11
2019-02-19T00:15:08.731Z,3.13
2019-02-19T00:17:38.274Z,3.18
2019-02-19T00:20:08.007Z,3.19
2019-02-19T00:22:37.880Z,3.00
2019-02-19T00:25:07.314Z,3.12
2019-02-19T00:27:36.895Z,3.00
2019-02-19T00:30:06.940Z,2.86
2019-02-19T00:32:36.447Z,2.76
2019-02-19T00:35:06.676Z,2.79
2019-02-19T00:37:36.151Z,2.17
2019-02-19T00:40:06.386Z,2.23
2019-02-19T00:42:35.840Z,2.27
2019-02-19T00:45:06.234Z,2.27
2019-02-19T00:47:35.991Z,2.24
2019-02-19T00:50:07.245Z,2.43
2019-02-19T00:52:36.761Z,2.49
2019-02-19T00:55:06.908Z,2.44
2019-02-19T00:57:36.531Z,2.48
2019-02-19T01:00:08.970Z,2.24
2019-02-19T01:02:38.798Z,2.12
2019-02-19T01:05:08.386Z,1.97
2019-02-19T01:07:38.037Z,1.93
2019-02-19T01:10:07.609Z,1.94
2019-02-19T01:12:37.092Z,2.05
2019-02-19T01:15:09.333Z,1.96
2019-02-19T01:17:38.892Z,1.85
2019-02-19T01:20:09.408Z,2.01
2019-02-19T01:22:38.953Z,1.99
2019-02-19T01:25:08.872Z,1.89
2019-02-19T01:27:38.581Z,1.94
2019-02-19T01:30:09.991Z,1.78
2019-02-19T01:32:39.657Z,1.71
2019-02-19T01:35:09.435Z,1.84
2019-02-19T01:37:39.024Z,1.89
2019-02-19T01:40:09.476Z,1.93
2019-02-19T01:42:41.319Z,1.93
2019-02-19T01:45:10.812Z,1.87
2019-02-19T01:47:40.549Z,1.66
2019-02-19T01:50:10.135Z,1.71
2019-02-19T01:52:39.707Z,1.86
2019-02-19T01:55:09.418Z,1.74
2019-02-19T01:57:38.876Z,1.51
2019-02-19T02:00:10.612Z,1.61
2019-02-19T02:02:40.265Z,1.62
2019-02-19T02:05:09.870Z,1.63
2019-02-19T02:07:39.697Z,1.61
2019-02-19T02:10:09.293Z,1.56
2019-02-19T02:12:38.805Z,1.44
2019-02-19T02:15:08.454Z,1.51
2019-02-19T02:17:37.922Z,1.45
2019-02-19T02:20:08.146Z,1.42
2019-02-19T02:22:37.812Z,1.37
2019-02-19T02:25:07.602Z,1.33
2019-02-19T02:27:37.173Z,1.31
2019-02-19T02:30:07.854Z,1.23
2019-02-19T02:32:37.443Z,1.26
2019-02-19T02:35:06.886Z,1.35
2019-02-19T02:37:36.445Z,1.51
2019-02-19T02:40:07.597Z,1.34
2019-02-19T02:42:37.008Z,1.51
2019-02-19T02:45:06.681Z,1.40
2019-02-19T02:47:36.268Z,1.23
2019-02-19T02:50:05.815Z,1.07
2019-02-19T02:52:35.255Z,0.93
2019-02-19T02:55:05.406Z,0.84
2019-02-19T02:57:35.208Z,0.92
2019-02-19T03:00:07.367Z,1.00
2019-02-19T03:02:36.786Z,0.93
2019-02-19T03:05:06.621Z,0.91
2019-02-19T03:07:43.464Z,0.79
2019-02-19T03:10:12.915Z,0.73
2019-02-19T03:12:42.689Z,0.64
2019-02-19T03:15:12.702Z,0.66
2019-02-19T03:17:42.189Z,0.64
2019-02-19T03:20:11.721Z,0.59
2019-02-19T03:22:41.550Z,0.58
2019-02-19T03:25:11.041Z,0.59
2019-02-19T03:27:40.495Z,0.57
2019-02-19T03:30:11.203Z,0.45
2019-02-19T03:32:40.831Z,0.47
2019-02-19T03:35:10.248Z,0.45
2019-02-19T03:37:39.787Z,0.42
2019-02-19T03:40:09.288Z,0.39
2019-02-19T03:42:38.818Z,0.34
2019-02-19T03:45:09.886Z,0.43
2019-02-19T03:47:39.576Z,0.51
2019-02-19T03:50:09.269Z,0.43
2019-02-19T03:52:38.899Z,0.39
2019-02-19T03:55:08.601Z,0.40
2019-02-19T03:57:38.039Z,0.49
2019-02-19T04:00:08.870Z,0.44
2019-02-19T04:02:38.349Z,0.55
2019-02-19T04:05:07.887Z,0.56
2019-02-19T04:07:37.548Z,0.36
2019-02-19T04:10:08.725Z,0.25
2019-02-19T04:12:38.275Z,0.06
2019-02-19T04:15:08.341Z,-0.08
2019-02-19T04:17:38.101Z,-0.19
2019-02-19T04:20:08.821Z,-0.17
2019-02-19T04:22:38.444Z,-0.18
2019-02-19T04:25:08.125Z,-0.15
2019-02-19T04:27:37.648Z,-0.17
2019-02-19T04:30:08.655Z,-0.12
2019-02-19T04:32:38.243Z,-0.10
2019-02-19T04:35:08.061Z,0.07
2019-02-19T04:37:37.534Z,-0.04
2019-02-19T04:40:08.327Z,-0.01
2019-02-19T04:42:37.868Z,0.02
2019-02-19T04:45:07.359Z,0.06
2019-02-19T04:47:36.838Z,0.03
2019-02-19T04:50:07.787Z,0.09
2019-02-19T04:52:37.265Z,0.13
2019-02-19T04:55:07.316Z,0.21
2019-02-19T04:57:37.706Z,0.10
2019-02-19T05:00:10.780Z,0.06
2019-02-19T05:02:40.281Z,0.03
2019-02-19T05:05:09.824Z,0.03
2019-02-19T05:07:39.337Z,-0.06
2019-02-19T05:10:09.035Z,-0.06
2019-02-19T05:12:38.489Z,-0.10
2019-02-19T05:15:10.508Z,-0.05
2019-02-19T05:17:40.126Z,-0.06
2019-02-19T05:20:09.955Z,0.05
2019-02-19T05:22:39.943Z,0.02
2019-02-19T05:25:11.398Z,-0.14
2019-02-19T05:27:41.141Z,-0.15
2019-02-19T05:30:13.502Z,-0.20
2019-02-19T05:32:42.947Z,-0.15
2019-02-19T05:35:14.816Z,-0.14
2019-02-19T05:37:44.307Z,-0.24
2019-02-19T05:40:13.879Z,-0.31
2019-02-19T05:42:43.480Z,-0.39
2019-02-19T05:45:13.058Z,-0.25
2019-02-19T05:47:42.769Z,-0.01
2019-02-19T05:50:12.277Z,0.08
2019-02-19T05:52:41.768Z,0.03
2019-02-19T05:55:11.302Z,0.01
2019-02-19T05:57:40.945Z,0.06
2019-02-19T06:00:12.388Z,0.11
2019-02-19T06:02:41.860Z,0.10
2019-02-19T06:05:11.448Z,0.05
2019-02-19T06:07:41.206Z,0.00
2019-02-19T06:10:12.626Z,0.11
2019-02-19T06:12:42.076Z,0.32
2019-02-19T06:15:12.249Z,0.35
2019-02-19T06:17:41.946Z,0.17
2019-02-19T06:20:11.507Z,0.06
2019-02-19T06:22:40.970Z,0.05
2019-02-19T06:25:10.726Z,0.14
2019-02-19T06:27:40.411Z,0.22
2019-02-19T06:30:12.599Z,0.17
2019-02-19T06:32:42.209Z,0.31
2019-02-19T06:35:11.720Z,0.26
2019-02-19T06:37:41.221Z,0.33
2019-02-19T06:40:26.891Z,0.37
2019-02-19T06:42:56.583Z,0.54
2019-02-19T06:45:26.033Z,0.73
2019-02-19T06:47:55.468Z,0.84
2019-02-19T06:50:25.019Z,0.98
2019-02-19T06:52:54.922Z,0.98
2019-02-19T06:55:24.387Z,1.16
2019-02-19T06:57:53.843Z,1.31
2019-02-19T07:00:24.517Z,1.91
2019-02-19T07:03:13.941Z,2.32
2019-02-19T07:05:43.563Z,2.66
2019-02-19T07:08:13.077Z,3.17
2019-02-19T07:10:42.645Z,3.73
2019-02-19T07:13:13.042Z,3.82
2019-02-19T07:15:42.502Z,4.37
2019-02-19T07:18:12.215Z,3.87
2019-02-19T07:20:41.673Z,3.75
2019-02-19T07:23:11.324Z,3.58
2019-02-19T07:25:40.755Z,3.78
2019-02-19T07:28:10.254Z,3.88
2019-02-19T07:30:40.587Z,4.70
2019-02-19T07:33:10.170Z,5.59
2019-02-19T07:35:39.667Z,5.46
2019-02-19T07:38:09.098Z,5.60
2019-02-19T07:40:38.676Z,5.78
2019-02-19T07:43:08.485Z,6.31
2019-02-19T07:45:37.794Z,6.08
2019-02-19T07:48:07.551Z,5.93
2019-02-19T07:50:36.963Z,5.03
2019-02-19T07:53:06.606Z,4.92
2019-02-19T07:55:36.294Z,5.29
2019-02-19T07:58:05.847Z,5.83
2019-02-19T08:00:35.289Z,6.22
2019-02-19T08:03:05.157Z,6.85
2019-02-19T08:05:34.619Z,6.95
2019-02-19T08:08:04.260Z,6.74
2019-02-19T08:10:34.122Z,6.60
2019-02-19T08:13:03.717Z,6.68
2019-02-19T08:15:33.421Z,7.65
2019-02-19T08:18:02.818Z,8.22
2019-02-19T08:20:32.327Z,8.03
2019-02-19T08:23:02.298Z,7.93
2019-02-19T08:25:31.946Z,8.04
2019-02-19T08:28:01.737Z,8.69
2019-02-19T08:30:31.160Z,9.20
2019-02-19T08:33:00.627Z,9.47
2019-02-19T08:35:30.156Z,9.59
2019-02-19T08:37:59.662Z,9.48
2019-02-19T08:40:29.151Z,11.09
2019-02-19T08:42:58.762Z,10.12
2019-02-19T08:45:28.277Z,10.46
2019-02-19T08:47:58.099Z,10.65
2019-02-19T08:50:27.580Z,10.83
2019-02-19T08:52:57.071Z,10.29
2019-02-19T08:55:26.834Z,9.92
2019-02-19T08:57:56.288Z,11.01
2019-02-19T09:00:25.874Z,10.68
2019-02-19T09:02:55.566Z,10.54
2019-02-19T09:05:25.089Z,10.32
2019-02-19T09:07:54.766Z,10.32
2019-02-19T09:10:24.239Z,10.11
2019-02-19T09:12:53.845Z,10.80
2019-02-19T09:15:23.372Z,10.08
2019-02-19T09:17:53.343Z,10.78
2019-02-19T09:20:22.952Z,11.07
2019-02-19T09:22:52.396Z,10.49
2019-02-19T09:25:21.843Z,10.58
2019-02-19T09:27:51.283Z,10.29
2019-02-19T09:30:21.031Z,10.78
2019-02-19T09:32:50.547Z,10.67
2019-02-19T09:35:20.066Z,10.84
2019-02-19T09:37:49.535Z,11.03
2019-02-19T09:40:19.344Z,11.55
2019-02-19T09:42:49.586Z,10.72
2019-02-19T09:45:19.070Z,10.74
2019-02-19T09:47:48.657Z,10.98
2019-02-19T09:50:18.141Z,11.17
2019-02-19T09:52:47.761Z,11.74
2019-02-19T09:55:17.420Z,11.89
2019-02-19T09:57:46.945Z,12.05
2019-02-19T10:00:16.532Z,11.43
2019-02-19T10:02:46.037Z,12.33
2019-02-19T10:05:15.630Z,11.99
2019-02-19T10:07:45.051Z,12.29
2019-02-19T10:10:19.978Z,11.82
2019-02-19T10:12:49.527Z,12.47
2019-02-19T10:15:19.316Z,12.21
2019-02-19T10:17:48.851Z,12.39
2019-02-19T10:20:18.270Z,12.84
2019-02-19T10:22:47.744Z,12.94
2019-02-19T10:25:17.275Z,13.04
2019-02-19T10:27:46.792Z,13.11
2019-02-19T10:30:19.040Z,13.21
2019-02-19T10:32:48.609Z,13.56
2019-02-19T10:35:18.441Z,13.26
2019-02-19T10:37:48.151Z,13.14
2019-02-19T10:40:18.737Z,13.56
2019-02-19T10:42:48.581Z,13.08
2019-02-19T10:45:20.820Z,13.49
2019-02-19T10:47:50.581Z,13.71
2019-02-19T10:50:20.349Z,13.58
2019-02-19T10:52:51.644Z,14.37
2019-02-19T10:55:21.352Z,13.66
2019-02-19T10:57:51.019Z,13.58
2019-02-19T11:00:22.790Z,14.38
2019-02-19T11:02:52.383Z,14.07
2019-02-19T11:05:21.920Z,14.39
2019-02-19T11:07:51.503Z,14.55
2019-02-19T11:10:21.130Z,13.80
2019-02-19T11:12:50.550Z,14.07
2019-02-19T11:15:20.080Z,13.52
2019-02-19T11:17:49.562Z,13.46
2019-02-19T11:20:21.197Z,13.60
2019-02-19T11:22:51.002Z,13.29
2019-02-19T11:25:20.640Z,13.57
2019-02-19T11:27:50.333Z,13.79
2019-02-19T11:30:20.736Z,13.89
2019-02-19T11:32:50.324Z,14.06
2019-02-19T11:35:20.069Z,14.29
2019-02-19T11:37:49.775Z,13.58
2019-02-19T11:40:19.511Z,13.63
2019-02-19T11:42:49.521Z,14.14
2019-02-19T11:45:19.716Z,13.64
2019-02-19T11:47:49.304Z,13.81
2019-02-19T11:50:18.855Z,13.99
2019-02-19T11:52:48.553Z,14.21
2019-02-19T11:55:19.271Z,14.94
2019-02-19T11:57:48.750Z,14.94
2019-02-19T12:00:36.480Z,14.84
2019-02-19T12:03:06.164Z,14.45
2019-02-19T12:05:35.759Z,14.91
2019-02-19T12:08:05.350Z,15.42
2019-02-19T12:10:35.062Z,14.93
2019-02-19T12:13:04.659Z,15.84
2019-02-19T12:15:35.561Z,16.15
2019-02-19T12:18:05.237Z,16.14
2019-02-19T12:20:34.766Z,16.86
2019-02-19T12:23:04.554Z,17.05
2019-02-19T12:25:34.301Z,16.72
2019-02-19T12:28:04.208Z,17.35
2019-02-19T12:30:33.997Z,16.82
2019-02-19T12:33:03.724Z,17.08
2019-02-19T12:35:33.334Z,17.46
2019-02-19T12:38:02.845Z,17.61
2019-02-19T12:40:32.548Z,17.19
2019-02-19T12:43:02.156Z,17.69
2019-02-19T12:45:31.934Z,17.37
2019-02-19T12:48:01.547Z,17.45
2019-02-19T12:50:31.217Z,17.13
2019-02-19T12:53:00.792Z,17.05
2019-02-19T12:55:30.496Z,16.81
2019-02-19T12:58:00.179Z,16.16
2019-02-19T13:00:29.699Z,16.42
2019-02-19T13:02:59.308Z,15.96
2019-02-19T13:05:28.976Z,16.41
2019-02-19T13:07:58.436Z,15.67
2019-02-19T13:10:28.208Z,15.47
2019-02-19T13:12:57.681Z,14.73
2019-02-19T13:15:27.261Z,14.56
2019-02-19T13:17:56.967Z,14.97
2019-02-19T13:20:26.572Z,15.57
2019-02-19T13:22:56.037Z,15.03
2019-02-19T13:25:27.109Z,14.94
2019-02-19T13:27:56.602Z,14.07
2019-02-19T13:30:26.435Z,13.80
2019-02-19T13:32:56.250Z,13.60
2019-02-19T13:35:25.819Z,13.59
2019-02-19T13:37:55.457Z,13.62
2019-02-19T13:40:25.168Z,12.92
2019-02-19T13:42:54.598Z,12.52
2019-02-19T13:45:24.470Z,12.31
2019-02-19T13:47:53.959Z,12.22
2019-02-19T13:50:28.868Z,12.17
2019-02-19T13:53:09.239Z,12.37
2019-02-19T13:55:43.215Z,12.42
2019-02-19T13:58:12.910Z,12.07
2019-02-19T14:00:44.232Z,12.14
2019-02-19T14:03:13.783Z,12.01
2019-02-19T14:05:43.332Z,11.90
2019-02-19T14:08:14.801Z,11.67
2019-02-19T14:10:43.936Z,11.61
2019-02-19T14:13:13.583Z,11.51
2019-02-19T14:15:47.965Z,11.32
2019-02-19T14:18:19.064Z,11.20
2019-02-19T14:21:06.369Z,11.33
2019-02-19T14:23:46.508Z,11.27
2019-02-19T14:26:17.785Z,11.15
2019-02-19T14:28:57.944Z,11.05
2019-02-19T14:31:44.477Z,11.08
2019-02-19T14:34:15.740Z,11.09
2019-02-19T14:36:49.782Z,10.99
2019-02-19T14:39:23.976Z,10.93
2019-02-19T14:41:58.135Z,10.76
2019-02-19T14:44:31.981Z,10.74
2019-02-19T14:47:03.203Z,10.65
2019-02-19T14:49:47.622Z,10.58
2019-02-19T14:52:27.652Z,10.47
2019-02-19T14:55:07.846Z,10.43
2019-02-19T14:57:41.912Z,10.39
2019-02-19T15:00:28.347Z,10.41
2019-02-19T15:03:02.390Z,10.32
2019-02-19T15:05:39.978Z,10.29
2019-02-19T15:08:27.330Z,10.35
2019-02-19T15:10:58.399Z,10.22
2019-02-19T15:13:41.603Z,10.18
2019-02-19T15:16:29.064Z,10.08
2019-02-19T15:19:02.816Z,10.03
2019-02-19T15:21:43.770Z,9.85
2019-02-19T15:24:24.381Z,9.92
2019-02-19T15:26:55.776Z,9.98
2019-02-19T15:29:43.353Z,9.96
2019-02-19T15:32:23.623Z,9.93
2019-02-19T15:35:03.802Z,9.76
2019-02-19T15:37:35.074Z,9.74
2019-02-19T15:40:23.558Z,9.66
2019-02-19T15:42:57.406Z,9.55
2019-02-19T15:45:30.997Z,9.65
2019-02-19T15:48:07.922Z,9.67
2019-02-19T15:50:48.281Z,9.51
2019-02-19T15:53:21.962Z,9.45
2019-02-19T15:55:53.170Z,9.49
2019-02-19T15:58:24.391Z,9.45
2019-02-19T16:01:11.842Z,9.46
2019-02-19T16:03:44.644Z,9.44
2019-02-19T16:06:15.776Z,9.38
2019-02-19T16:08:47.111Z,9.40
2019-02-19T16:11:18.295Z,9.37
2019-02-19T16:13:58.146Z,9.31
2019-02-19T16:16:38.346Z,9.18
2019-02-19T16:19:16.086Z,9.13
2019-02-19T16:22:05.505Z,9.14
2019-02-19T16:24:39.708Z,9.08
2019-02-19T16:27:22.834Z,9.09
2019-02-19T16:29:54.173Z,9.13
2019-02-19T16:32:43.272Z,9.02
2019-02-19T16:35:17.256Z,9.10
2019-02-19T16:37:54.113Z,8.95
2019-02-19T16:40:25.442Z,8.99
2019-02-19T16:42:56.499Z,9.03
2019-02-19T16:45:30.463Z,8.99
2019-02-19T16:48:01.595Z,8.95
2019-02-19T16:50:38.545Z,8.96
2019-02-19T16:53:12.434Z,8.93
2019-02-19T16:55:43.685Z,8.93
2019-02-19T16:58:17.688Z,8.85
2019-02-19T17:00:57.900Z,8.88
2019-02-19T17:03:29.061Z,8.88
2019-02-19T17:06:00.152Z,8.85
2019-02-19T17:08:43.573Z,8.77
2019-02-19T17:11:14.814Z,8.70
2019-02-19T17:14:02.339Z,8.68
2019-02-19T17:16:39.084Z,8.62
2019-02-19T17:19:26.157Z,8.62
2019-02-19T17:22:10.004Z,8.62
2019-02-19T17:24:47.440Z,8.63
2019-02-19T17:27:18.544Z,8.58
2019-02-19T17:29:58.974Z,8.55
2019-02-19T17:32:30.191Z,8.51
2019-02-19T17:35:06.893Z,8.42
2019-02-19T17:37:40.373Z,8.41
2019-02-19T17:40:26.416Z,8.33
2019-02-19T17:43:00.393Z,8.31
2019-02-19T17:45:43.189Z,8.26
2019-02-19T17:48:14.273Z,8.25
2019-02-19T17:51:00.822Z,8.20
2019-02-19T17:53:40.775Z,8.16
2019-02-19T17:56:14.650Z,8.17
2019-02-19T17:58:45.930Z,8.16
2019-02-19T18:01:19.986Z,8.11
2019-02-19T18:04:00.376Z,8.11
2019-02-19T18:06:31.523Z,8.08
2019-02-19T18:09:06.215Z,7.99
2019-02-19T18:11:37.339Z,7.97
2019-02-19T18:14:08.602Z,7.93
2019-02-19T18:16:39.736Z,7.93
2019-02-19T18:19:09.405Z,7.88
2019-02-19T18:21:39.273Z,7.78
2019-02-19T18:24:08.676Z,7.83
2019-02-19T18:26:38.344Z,7.76
2019-02-19T18:29:07.800Z,7.73
2019-02-19T18:31:37.431Z,7.66
2019-02-19T18:34:06.991Z,7.62
2019-02-19T18:36:37.054Z,7.50
2019-02-19T18:39:06.952Z,7.56
2019-02-19T18:41:37.031Z,7.42
2019-02-19T18:44:06.737Z,7.39
2019-02-19T18:46:36.199Z,7.43
2019-02-19T18:49:05.720Z,7.38
2019-02-19T18:51:35.305Z,7.32
2019-02-19T18:54:04.850Z,7.30
2019-02-19T18:56:34.307Z,7.28
2019-02-19T18:59:04.049Z,7.28
2019-02-19T19:01:33.593Z,7.27
2019-02-19T19:04:03.267Z,7.24
2019-02-19T19:06:32.743Z,7.16
2019-02-19T19:09:02.437Z,7.12
2019-02-19T19:11:31.928Z,7.13
2019-02-19T19:14:01.662Z,7.11
2019-02-19T19:16:31.339Z,7.08
2019-02-19T19:19:00.815Z,7.09
2019-02-19T19:21:30.868Z,7.08
2019-02-19T19:24:00.326Z,7.06
2019-02-19T19:26:29.892Z,7.05
2019-02-19T19:28:59.413Z,7.07
2019-02-19T19:31:33.570Z,7.04
2019-02-19T19:34:00.775Z,6.99
2019-02-19T19:36:30.245Z,7.04
2019-02-19T19:38:59.754Z,7.09
2019-02-19T19:41:31.218Z,7.13
2019-02-19T19:44:00.893Z,7.15
2019-02-19T19:46:30.558Z,7.15
2019-02-19T19:49:00.019Z,7.25
2019-02-19T19:51:30.266Z,7.25
2019-02-19T19:53:59.933Z,7.21
2019-02-19T19:56:29.557Z,7.28
2019-02-19T19:58:59.819Z,7.29
2019-02-19T20:01:30.669Z,7.26
2019-02-19T20:04:00.328Z,7.31
2019-02-19T20:06:29.817Z,7.33
2019-02-19T20:08:59.528Z,7.30
2019-02-19T20:11:29.050Z,7.32
2019-02-19T20:13:58.651Z,7.37
2019-02-19T20:16:28.111Z,7.32
2019-02-19T20:18:57.642Z,7.33
2019-02-19T20:21:27.313Z,7.35
2019-02-19T20:23:56.830Z,7.35
2019-02-19T20:26:26.437Z,7.35
2019-02-19T20:28:56.073Z,7.36
2019-02-19T20:31:26.134Z,7.38
2019-02-19T20:33:55.743Z,7.44
2019-02-19T20:36:25.219Z,7.50
2019-02-19T20:38:54.913Z,7.53
2019-02-19T20:41:25.866Z,7.50
2019-02-19T20:43:56.014Z,7.43
2019-02-19T20:46:28.524Z,7.46
2019-02-19T20:48:58.699Z,7.51
2019-02-19T20:51:36.153Z,7.52
2019-02-19T20:53:59.469Z,7.48
2019-02-19T20:56:29.433Z,7.43
2019-02-19T20:58:58.927Z,7.46
2019-02-19T21:01:28.468Z,7.49
2019-02-19T21:03:57.915Z,7.51
2019-02-19T21:06:27.646Z,7.47
2019-02-19T21:08:57.117Z,7.52
2019-02-19T21:11:27.669Z,7.52
2019-02-19T21:13:57.457Z,7.49
2019-02-19T21:16:27.073Z,7.46
2019-02-19T21:18:56.846Z,7.49
2019-02-19T21:21:26.482Z,7.47
2019-02-19T21:23:56.081Z,7.49
2019-02-19T21:26:26.009Z,7.49
2019-02-19T21:28:55.685Z,7.48
2019-02-19T21:31:25.155Z,7.48
2019-02-19T21:33:54.731Z,7.52
2019-02-19T21:36:24.176Z,7.44
2019-02-19T21:38:54.273Z,7.42
2019-02-19T21:41:23.766Z,7.39
2019-02-19T21:43:53.288Z,7.39
2019-02-19T21:46:22.737Z,7.36
2019-02-19T21:48:52.362Z,7.32
2019-02-19T21:51:22.907Z,7.30
2019-02-19T21:53:52.659Z,7.29
2019-02-19T21:56:22.632Z,7.24
2019-02-19T21:58:53.365Z,7.22
2019-02-19T22:01:22.856Z,7.26
2019-02-19T22:03:52.505Z,7.26
2019-02-19T22:06:22.183Z,7.29
2019-02-19T22:08:52.144Z,7.24
2019-02-19T22:11:21.887Z,7.27
2019-02-19T22:13:51.747Z,7.30
2019-02-19T22:16:21.385Z,7.26
2019-02-19T22:18:51.202Z,7.21
2019-02-19T22:21:22.428Z,7.18
2019-02-19T22:23:51.961Z,7.16
2019-02-19T22:26:21.474Z,7.19
2019-02-19T22:28:51.145Z,7.14
2019-02-19T22:31:20.838Z,7.16
2019-02-19T22:33:50.486Z,7.14
2019-02-19T22:36:20.083Z,7.12
2019-02-19T22:38:49.516Z,7.18
2019-02-19T22:41:19.070Z,7.19
2019-02-19T22:43:48.609Z,7.18
2019-02-19T22:46:18.112Z,7.19
2019-02-19T22:48:47.663Z,7.20
2019-02-19T22:51:17.060Z,7.25
2019-02-19T22:54:03.564Z,7.25
2019-02-19T22:56:34.795Z,7.19
2019-02-19T22:59:04.442Z,7.28
2019-02-19T23:01:38.432Z,7.27
2019-02-19T23:04:07.910Z,7.29
2019-02-19T23:06:37.498Z,7.27
2019-02-19T23:09:07.386Z,7.22
2019-02-19T23:11:36.783Z,7.28
2019-02-19T23:14:06.243Z,7.23
2019-02-19T23:16:35.809Z,7.19
2019-02-19T23:19:05.268Z,7.16
2019-02-19T23:21:34.752Z,7.18
2019-02-19T23:24:04.245Z,7.20
2019-02-19T23:26:33.787Z,7.20
2019-02-19T23:29:03.249Z,7.10
2019-02-19T23:31:32.778Z,7.08
2019-02-19T23:34:02.659Z,7.12
2019-02-19T23:36:36.594Z,7.15
2019-02-19T23:39:06.643Z,7.11
2019-02-19T23:41:36.206Z,7.05
2019-02-19T23:44:05.610Z,6.98
2019-02-19T23:46:35.070Z,6.90
2019-02-19T23:49:04.622Z,6.83
2019-02-19T23:51:34.070Z,6.84
2019-02-19T23:54:03.844Z,6.79
2019-02-19T23:56:33.251Z,6.74
2019-02-19T23:59:02.854Z,6.74
